»·PEaware :: ASA821 KPDX-KSMF

ASA821 :: KPDX-KSMF

FLIGHT INFORMATION

Flight Status: Arrived
Operator:
Alaska Airlines
More flights by this operator :: More flights under this callsign
Pilot: Andre N. (13929)
Aircraft: BOEING 737-800
(B738)
More flights by this aircraft type
Origin: KPDX Portland Intl
United States
Destination: KSMF Sacramento Intl
United States
More flights between these airports :: More routes between these airports
Route: HRMNS5 HRMNS J189 LMT TUDOR2
File this flight plan on PilotEdge
Remarks:
Altitude:
(Current/Filed)
35,000ft
Speed:
(Current/Filed)
460kts
Departed: 12-Mar-18 11:53 AM
Arrived: 12-Mar-18 01:09 PM
Distance/Time
Traveled:
416nm/1:16
Distance/Time
To Go:
Arrived

Flight Plot

Page will automatically refresh every two minutes.

Flight plan parsing failed; only flown route is shown


Map Options




Map Legend


Flown Route
Filed Route
Departure Airport
Arrival Airport
Navaid (VOR, NDB)
Fix

Horizontal Profiles

Position Reports

Time Latitude Longitude Heading Altitude Ground
Speed
12-Mar-18 11:22 45.588430 -122.596367 29 30ft 0kts
12-Mar-18 11:23 45.588430 -122.596367 29 30ft 0kts
12-Mar-18 11:24 45.588430 -122.596367 29 30ft 0kts
12-Mar-18 11:25 45.588430 -122.596367 29 30ft 0kts
12-Mar-18 11:26 45.588430 -122.596367 29 30ft 0kts
12-Mar-18 11:27 45.588430 -122.596367 29 30ft 0kts
12-Mar-18 11:28 45.588430 -122.596367 29 30ft 0kts
12-Mar-18 11:29 45.588430 -122.596367 29 30ft 0kts
12-Mar-18 11:30 45.588430 -122.596367 29 30ft 0kts
12-Mar-18 11:31 45.588430 -122.596367 29 30ft 0kts
12-Mar-18 11:32 45.588430 -122.596367 29 30ft 0kts
12-Mar-18 11:33 45.588430 -122.596367 29 30ft 0kts
12-Mar-18 11:34 45.588430 -122.596367 29 30ft 0kts
12-Mar-18 11:35 45.588430 -122.596367 29 30ft 0kts
12-Mar-18 11:36 45.588430 -122.596367 29 30ft 0kts
12-Mar-18 11:37 45.588430 -122.596367 29 30ft 0kts
12-Mar-18 11:38 45.588430 -122.596367 29 30ft 0kts
12-Mar-18 11:39 45.588430 -122.596367 29 30ft 0kts
12-Mar-18 11:40 45.588430 -122.596367 29 30ft 0kts
12-Mar-18 11:41 45.588430 -122.596367 29 30ft 0kts
12-Mar-18 11:42 45.588430 -122.596367 29 30ft 0kts
12-Mar-18 11:43 45.588206 -122.596548 29 30ft 2kts
12-Mar-18 11:44 45.587714 -122.596760 340 30ft 2kts
12-Mar-18 11:45 45.587489 -122.596466 298 30ft 0kts
12-Mar-18 11:46 45.587489 -122.596466 298 30ft 0kts
12-Mar-18 11:47 45.587489 -122.596467 298 30ft 0kts
12-Mar-18 11:48 45.588668 -122.599475 297 30ft 23kts
12-Mar-18 11:49 45.591056 -122.606266 306 30ft 20kts
12-Mar-18 11:50 45.594255 -122.614343 298 30ft 24kts
12-Mar-18 11:51 45.596025 -122.620588 212 30ft 0kts
12-Mar-18 11:52 45.593979 -122.618445 118 30ft 47kts
12-Mar-18 11:53 45.576511 -122.571912 113 2174ft 143kts
12-Mar-18 11:54 45.569498 -122.510104 93 4396ft 172kts
12-Mar-18 11:55 45.563399 -122.443085 104 6932ft 179kts
12-Mar-18 11:56 45.547621 -122.360350 105 8738ft 248kts
12-Mar-18 11:57 45.495745 -122.309698 171 11325ft 273kts
12-Mar-18 11:58 45.426745 -122.326583 211 13524ft 308kts
12-Mar-18 11:59 45.354058 -122.377851 174 15446ft 317kts
12-Mar-18 12:00 45.268276 -122.359560 173 18220ft 326kts
12-Mar-18 12:01 45.180153 -122.340788 174 20585ft 339kts
12-Mar-18 12:02 45.087227 -122.321055 174 22724ft 350kts
12-Mar-18 12:03 44.991611 -122.300819 174 24627ft 362kts
12-Mar-18 12:04 44.895023 -122.280456 174 26308ft 372kts
12-Mar-18 12:05 44.799565 -122.260396 174 27894ft 379kts
12-Mar-18 12:06 44.697850 -122.239079 174 29229ft 390kts
12-Mar-18 12:07 44.595789 -122.217712 174 30956ft 386kts
12-Mar-18 12:08 44.492808 -122.196204 175 32494ft 382kts
12-Mar-18 12:09 44.389556 -122.174717 175 33871ft 379kts
12-Mar-18 12:10 44.287822 -122.153627 176 35082ft 375kts
12-Mar-18 12:11 44.183235 -122.132165 176 35153ft 401kts
12-Mar-18 12:12 44.071823 -122.109384 175 35129ft 427kts
12-Mar-18 12:13 43.956519 -122.085760 175 35123ft 426kts
12-Mar-18 12:14 43.846808 -122.063360 175 35132ft 426kts
12-Mar-18 12:15 43.738110 -122.041243 175 35131ft 426kts
12-Mar-18 12:16 43.623391 -122.017988 175 35129ft 424kts
12-Mar-18 12:17 43.506857 -121.994447 175 35129ft 426kts
12-Mar-18 12:18 43.390601 -121.971051 175 35128ft 426kts
12-Mar-18 12:19 43.275432 -121.947961 175 35127ft 426kts
12-Mar-18 12:20 43.160636 -121.925029 175 35126ft 426kts
12-Mar-18 12:21 43.045499 -121.902117 175 35124ft 425kts
12-Mar-18 12:22 42.929637 -121.879142 175 35124ft 426kts
12-Mar-18 12:23 42.821192 -121.857718 175 35133ft 426kts
12-Mar-18 12:24 42.714929 -121.836798 175 35132ft 426kts
12-Mar-18 12:25 42.599549 -121.814167 175 35131ft 426kts
12-Mar-18 12:26 42.483633 -121.791520 175 35130ft 426kts
12-Mar-18 12:27 42.369046 -121.769224 175 35129ft 426kts
12-Mar-18 12:28 42.254548 -121.747044 175 35128ft 427kts
12-Mar-18 12:29 42.139235 -121.725947 181 35120ft 424kts
12-Mar-18 12:30 42.024031 -121.726607 183 35127ft 423kts
12-Mar-18 12:31 41.908813 -121.726313 183 35125ft 423kts
12-Mar-18 12:32 41.803775 -121.725826 183 35133ft 423kts
12-Mar-18 12:33 41.701721 -121.725342 183 35133ft 424kts
12-Mar-18 12:34 41.587974 -121.724804 183 35132ft 424kts
12-Mar-18 12:35 41.474309 -121.724260 183 35131ft 421kts
12-Mar-18 12:36 41.360096 -121.723728 183 35129ft 421kts
12-Mar-18 12:37 41.250128 -121.723210 183 35128ft 421kts
12-Mar-18 12:38 41.137415 -121.722686 183 35127ft 421kts
12-Mar-18 12:39 41.024448 -121.722160 183 35126ft 421kts
12-Mar-18 12:40 40.910109 -121.721646 183 34063ft 427kts
12-Mar-18 12:41 40.816592 -121.721216 182 32513ft 428kts
12-Mar-18 12:42 40.710449 -121.720736 182 30774ft 433kts
12-Mar-18 12:43 40.596096 -121.720169 181 28838ft 417kts
12-Mar-18 12:44 40.483990 -121.719679 181 27119ft 426kts
12-Mar-18 12:45 40.367576 -121.713796 178 25342ft 415kts
12-Mar-18 12:46 40.260757 -121.704101 178 23547ft 376kts
12-Mar-18 12:47 40.162840 -121.695642 178 21862ft 346kts
12-Mar-18 12:48 40.071588 -121.687839 178 20271ft 332kts
12-Mar-18 12:49 39.982024 -121.680187 178 18820ft 325kts
12-Mar-18 12:50 39.896895 -121.672913 180 17473ft 327kts
12-Mar-18 12:51 39.814673 -121.665921 180 16229ft 325kts
12-Mar-18 12:52 39.731323 -121.658840 180 14930ft 317kts
12-Mar-18 12:53 39.644514 -121.651486 179 13547ft 310kts
12-Mar-18 12:54 39.560247 -121.644365 179 12172ft 305kts
12-Mar-18 12:55 39.477300 -121.637383 179 12012ft 304kts
12-Mar-18 12:56 39.398963 -121.630749 179 12012ft 278kts
12-Mar-18 12:57 39.325902 -121.624655 179 11970ft 280kts
12-Mar-18 12:58 39.254303 -121.618599 179 10352ft 252kts
12-Mar-18 12:59 39.184619 -121.612870 178 8767ft 255kts
12-Mar-18 13:00 39.116580 -121.607244 176 7210ft 254kts
12-Mar-18 13:01 39.061061 -121.602648 175 6002ft 234kts
12-Mar-18 13:02 38.984884 -121.597701 177 4734ft 242kts
12-Mar-18 13:03 38.922660 -121.597505 180 3684ft 214kts
12-Mar-18 13:04 38.877785 -121.598128 181 2986ft 218kts
12-Mar-18 13:05 38.817436 -121.599165 181 2067ft 208kts
12-Mar-18 13:06 38.766532 -121.600054 180 1215ft 195kts
12-Mar-18 13:07 38.715317 -121.600954 180 237ft 168kts
12-Mar-18 13:08 38.691319 -121.601348 178 31ft 39kts
12-Mar-18 13:09 38.690577 -121.599533 92 30ft 0kts
12-Mar-18 13:10 38.693354 -121.598687 0 30ft 23kts
12-Mar-18 13:11 38.697004 -121.595992 91 30ft 22kts
12-Mar-18 13:12 38.696882 -121.589491 114 30ft 8kts
12-Mar-18 13:13 38.695823 -121.590268 270 30ft 0kts
12-Mar-18 13:14 38.695823 -121.590268 270 30ft 0kts
12-Mar-18 13:15 38.695823 -121.590268 270 30ft 0kts

Navigation Log

Ident Type
Flight plan parsing failed, navigation log unavailable